Campobello, South Carolina
Current Conditions -  °F | °C
As of 12:53 PM on Thursday 27 Nov 2014 (Local Time) from KGSP Reporting Station
Clear Clear  
Wind Chill: 50°   Ceiling: Unl
Heat Index: 50°   Visibility: 10mi
Dew Point: 25°   Wind: 8mph
Humidity: 38%   Direction: 340°NNW
Pressure: 30.13"   Gusts: 23mph
Location:  35.12°N, 82.15°W
Report Text: KGSP 271753Z 34007G20KT 280V010 10SM CLR 10/M04 A3013 RMK AO2 SLP202 T01001039 10106 20028 50009
Loading
Personal Weather Stations






























Interactive Weather Map New forecast layout! Learn more

10-Day Weather Forecast

Advertisements
Track Severe Weather on mobile